.
WxDataArchive / Data Records for 2009-06-10
2009-06-09 June 2009 2009-06-11

Data Records for Wednesday, 10 June 2009

Time	Temp	Chill	HIndex	Humid	Dewpt	 Wind 	HiWind	WindDir	Rain 	Barom 
-----	----	-----	------	-----	-----	------	------	-------	-----	----- 
00:00	59.5	59.5	59.5	82	54.0	0	2	135	0.00	29.950 
00:05	59.3	59.3	59.3	82	53.8	0	2	135	0.00	29.950 
00:10	59.2	59.2	59.2	82	53.7	0	1	135	0.00	29.950 
00:15	59.0	59.0	59.0	82	53.5	0	1	135	0.00	29.951 
00:20	59.0	59.0	59.0	82	53.5	0	2	135	0.00	29.951 
00:25	58.9	58.9	58.9	82	53.4	0	1	135	0.00	29.951 
00:30	58.9	58.9	58.9	82	53.4	0	1	135	0.00	29.948 
00:35	58.7	58.7	58.7	83	53.5	0	2	135	0.00	29.948 
00:40	58.7	58.7	58.7	83	53.5	1	4	90	0.00	29.948 
00:45	58.7	58.7	58.7	83	53.5	0	2	90	0.00	29.950 
00:50	58.6	58.6	58.6	84	53.8	0	0	---	0.00	29.950 
00:55	58.6	58.6	58.6	84	53.8	0	0	---	0.00	29.950 
01:00	58.4	58.4	58.4	84	53.6	0	0	---	0.00	29.952 
01:05	58.4	58.4	58.4	84	53.6	0	1	90	0.00	29.952 
01:10	58.4	58.4	58.4	85	53.9	0	1	90	0.00	29.952 
01:15	58.4	58.4	58.4	84	53.6	0	0	---	0.00	29.956 
01:20	58.4	58.4	58.4	85	53.9	0	0	---	0.00	29.956 
01:25	58.4	58.4	58.4	85	53.9	0	0	---	0.00	29.956 
01:30	58.4	58.4	58.4	85	53.9	0	0	---	0.00	29.954 
01:35	58.3	58.3	58.3	85	53.8	0	0	---	0.00	29.954 
01:40	58.3	58.3	58.3	85	53.8	0	0	---	0.00	29.954 
01:45	58.1	58.1	58.1	85	53.6	0	0	---	0.00	29.961 
01:50	58.0	58.0	58.0	85	53.5	0	0	---	0.00	29.961 
01:55	57.6	57.6	57.6	86	53.4	0	0	---	0.00	29.961 
02:00	57.5	57.5	57.5	86	53.3	0	0	---	0.00	29.974 
02:05	57.3	57.3	57.3	87	53.5	0	0	---	0.00	29.974 
02:10	57.2	57.2	57.2	87	53.4	0	0	---	0.00	29.974 
02:15	57.0	57.0	57.0	87	53.2	0	0	---	0.00	29.975 
02:20	56.9	56.9	56.9	87	53.1	0	0	---	0.00	29.975 
02:25	56.7	56.7	56.7	87	52.9	0	0	---	0.00	29.975 
02:30	56.7	56.7	56.7	88	53.2	0	0	---	0.00	29.970 
02:35	56.7	56.7	56.7	88	53.2	0	0	---	0.00	29.970 
02:40	56.9	56.9	56.9	89	53.7	0	0	---	0.00	29.970 
02:45	56.9	56.9	56.9	89	53.7	0	0	---	0.00	29.957 
02:50	57.0	57.0	57.0	89	53.8	0	1	90	0.00	29.957 
02:55	57.2	57.2	57.2	90	54.3	0	0	---	0.00	29.957 
03:00	57.2	57.2	57.2	90	54.3	0	0	---	0.00	29.961 
03:05	57.3	57.3	57.3	90	54.4	0	0	---	0.00	29.961 
03:10	57.3	57.3	57.3	89	54.1	0	0	---	0.00	29.961 
03:15	57.5	57.5	57.5	89	54.3	0	0	---	0.00	29.961 
03:20	57.5	57.5	57.5	89	54.3	0	0	---	0.00	29.961 
03:25	57.5	57.5	57.5	89	54.3	0	0	---	0.00	29.961 
03:30	57.5	57.5	57.5	89	54.3	0	0	---	0.00	29.959 
03:35	57.5	57.5	57.5	89	54.3	0	0	---	0.00	29.959 
03:40	57.5	57.5	57.5	89	54.3	0	0	---	0.00	29.959 
03:45	57.3	57.3	57.3	89	54.1	0	0	---	0.00	29.957 
03:50	57.3	57.3	57.3	89	54.1	0	0	---	0.00	29.957 
03:55	57.5	57.5	57.5	89	54.3	0	0	---	0.00	29.957 
04:00	57.5	57.5	57.5	89	54.3	0	0	---	0.00	29.944 
04:05	57.5	57.5	57.5	89	54.3	0	2	90	0.00	29.944 
04:10	57.6	57.6	57.6	89	54.4	0	3	90	0.00	29.944 
04:15	57.6	57.6	57.6	88	54.1	1	4	90	0.00	29.929 
04:20	57.6	57.6	57.6	88	54.1	0	1	90	0.00	29.929 
04:25	57.8	57.8	57.8	88	54.3	0	2	90	0.00	29.929 
04:30	57.8	57.8	57.8	88	54.3	0	2	90	0.00	29.945 
04:35	57.8	57.8	57.8	88	54.3	0	0	---	0.00	29.945 
04:40	57.8	57.8	57.8	88	54.3	0	0	---	0.00	29.945 
04:45	58.0	58.0	58.0	88	54.5	0	0	---	0.00	29.956 
04:50	58.0	58.0	58.0	88	54.5	0	0	---	0.00	29.956 
04:55	58.0	58.0	58.0	88	54.5	0	0	---	0.00	29.956 
05:00	58.0	58.0	58.0	88	54.5	0	0	---	0.00	29.946 
05:05	58.0	58.0	58.0	88	54.5	0	0	---	0.00	29.946 
05:10	58.0	58.0	58.0	88	54.5	0	0	---	0.00	29.946 
05:15	58.0	58.0	58.0	88	54.5	0	0	---	0.00	29.944 
05:20	58.1	58.1	58.1	88	54.6	0	0	---	0.00	29.944 
05:25	58.1	58.1	58.1	88	54.6	0	2	90	0.00	29.944 
05:30	58.1	58.1	58.1	88	54.6	0	2	90	0.00	29.925 
05:35	58.1	58.1	58.1	88	54.6	0	3	90	0.00	29.925 
05:40	58.1	58.1	58.1	87	54.2	0	1	90	0.00	29.925 
05:45	58.1	58.1	58.1	87	54.2	0	2	90	0.00	29.921 
05:50	58.1	58.1	58.1	88	54.6	0	1	90	0.00	29.921 
05:55	58.1	58.1	58.1	88	54.6	0	2	90	0.00	29.921 
06:00	58.3	58.3	58.3	88	54.8	0	2	90	0.00	29.911 
06:05	58.3	58.3	58.3	88	54.8	0	0	---	0.00	29.911 
06:10	58.3	58.3	58.3	88	54.8	0	1	90	0.00	29.911 
06:15	58.1	58.1	58.1	88	54.6	1	3	90	0.00	29.908 
06:20	58.1	58.1	58.1	88	54.6	0	2	90	0.00	29.908 
06:25	58.1	58.1	58.1	88	54.6	0	1	90	0.00	29.908 
06:30	58.0	58.0	58.0	88	54.5	0	1	90	0.00	29.903 
06:35	58.0	58.0	58.0	88	54.5	0	3	90	0.00	29.903 
06:40	58.0	58.0	58.0	88	54.5	0	2	90	0.00	29.903 
06:45	58.0	58.0	58.0	88	54.5	0	2	90	0.00	29.901 
06:50	58.0	58.0	58.0	88	54.5	0	2	90	0.00	29.901 
06:55	58.1	58.1	58.1	88	54.6	0	2	90	0.00	29.901 
07:00	58.1	58.1	58.1	88	54.6	1	2	90	0.00	29.899 
07:05	58.1	58.1	58.1	88	54.6	1	3	90	0.00	29.899 
07:10	58.1	58.1	58.1	87	54.2	0	2	90	0.00	29.899 
07:15	58.3	58.3	58.3	88	54.8	0	1	90	0.00	29.897 
07:20	58.3	58.3	58.3	87	54.4	0	1	90	0.00	29.897 
07:25	58.4	58.4	58.4	87	54.5	0	0	---	0.00	29.897 
07:30	58.7	58.7	58.7	88	55.2	0	0	---	0.00	29.900 
07:35	58.9	58.9	58.9	87	55.0	0	1	90	0.00	29.900 
07:40	59.0	59.0	59.0	87	55.1	0	0	---	0.00	29.900 
07:45	59.2	59.2	59.2	87	55.3	0	0	---	0.00	29.903 
07:50	59.2	59.2	59.2	87	55.3	0	0	---	0.00	29.903 
07:55	59.2	59.2	59.2	87	55.3	0	0	---	0.00	29.903 
08:00	59.3	59.3	59.3	87	55.4	0	0	---	0.00	29.909 
08:05	59.3	59.3	59.3	86	55.1	0	0	---	0.00	29.909 
08:10	59.3	59.3	59.3	86	55.1	0	0	---	0.00	29.909 
08:15	59.3	59.3	59.3	86	55.1	0	1	90	0.00	29.916 
08:20	59.5	59.5	59.5	86	55.3	0	2	90	0.00	29.916 
08:25	59.5	59.5	59.5	86	55.3	0	1	90	0.00	29.916 
08:30	59.5	59.5	59.5	86	55.3	0	0	---	0.00	29.913 
08:35	59.6	59.6	59.6	86	55.4	0	1	90	0.00	29.913 
08:40	59.6	59.6	59.6	86	55.4	0	1	90	0.00	29.913 
08:45	59.6	59.6	59.6	86	55.4	0	0	---	0.00	29.926 
08:50	59.8	59.8	59.8	87	55.9	0	0	---	0.00	29.926 
08:55	59.9	59.9	59.9	87	56.0	0	0	---	0.00	29.926 
09:00	59.9	59.9	59.9	87	56.0	0	0	---	0.00	29.934 
09:05	59.9	59.9	59.9	87	56.0	0	0	---	0.00	29.934 
09:10	60.1	60.1	60.1	87	56.2	0	1	90	0.00	29.934 
09:15	60.1	60.1	60.1	87	56.2	0	1	90	0.00	29.930 
09:20	60.2	60.2	60.2	88	56.6	0	1	90	0.01	29.930 
09:25	60.2	60.2	60.2	88	56.6	0	1	90	0.00	29.930 
09:30	60.4	60.4	60.4	88	56.8	0	1	90	0.00	29.930 
09:35	60.5	60.5	60.5	88	56.9	0	1	90	0.00	29.930 
09:40	60.5	60.5	60.5	89	57.2	0	1	90	0.00	29.930 
09:45	60.5	60.5	60.5	89	57.2	0	2	90	0.00	29.926 
09:50	60.7	60.7	60.7	88	57.1	0	2	90	0.00	29.926 
09:55	60.7	60.7	60.7	88	57.1	0	2	90	0.00	29.926 
10:00	60.9	60.9	60.9	88	57.3	1	2	90	0.00	29.926 
10:05	60.9	60.9	60.9	88	57.3	0	3	112	0.00	29.926 
10:10	60.9	60.9	60.9	88	57.3	0	2	112	0.00	29.926 
10:15	60.9	60.9	60.9	88	57.3	0	2	112	0.00	29.935 
10:20	60.9	60.9	60.9	88	57.3	1	2	112	0.00	29.935 
10:25	61.0	61.0	61.0	88	57.4	0	2	90	0.00	29.935 
10:30	61.2	61.2	61.2	88	57.6	0	2	90	0.00	29.926 
10:35	61.2	61.2	61.2	88	57.6	0	1	90	0.00	29.926 
10:40	61.2	61.2	61.2	88	57.6	0	1	90	0.00	29.926 
10:45	61.2	61.2	61.2	88	57.6	0	1	90	0.00	29.936 
10:50	61.2	61.2	61.2	88	57.6	0	1	90	0.00	29.936 
10:55	61.3	61.3	61.3	88	57.7	0	2	90	0.00	29.936 
11:00	61.3	61.3	61.3	88	57.7	0	1	90	0.00	29.926 
11:05	61.3	61.3	61.3	88	57.7	0	1	90	0.00	29.926 
11:10	61.3	61.3	61.3	88	57.7	0	1	90	0.00	29.926 
11:15	61.5	61.5	61.5	88	57.9	0	2	90	0.00	29.924 
11:20	61.5	61.5	61.5	88	57.9	0	2	90	0.00	29.924 
11:25	61.3	61.3	61.3	87	57.4	1	3	90	0.00	29.924 
11:30	61.5	61.5	61.5	88	57.9	0	2	90	0.00	29.925 
11:35	61.6	61.6	61.6	88	58.0	0	1	90	0.00	29.925 
11:40	61.8	61.8	61.8	88	58.2	0	2	90	0.01	29.925 
11:45	61.8	61.8	61.8	88	58.2	1	4	90	0.00	29.918 
11:50	61.5	61.5	61.5	89	58.2	1	5	90	0.00	29.918 
11:55	61.5	61.5	61.5	90	58.5	1	3	112	0.00	29.918 
12:00	61.3	61.3	61.3	90	58.3	1	2	112	0.00	29.911 
12:05	61.5	61.5	61.5	91	58.8	1	3	112	0.00	29.911 
12:10	61.6	61.6	61.6	91	58.9	0	2	112	0.00	29.911 
12:15	61.6	61.6	61.6	91	58.9	0	2	112	0.00	29.908 
12:20	61.6	61.6	61.6	91	58.9	1	3	112	0.00	29.908 
12:25	61.5	61.5	61.5	91	58.8	1	3	112	0.00	29.908 
12:30	61.5	61.5	61.5	91	58.8	1	3	112	0.00	29.912 
12:35	61.5	61.5	61.5	91	58.8	0	1	112	0.00	29.912 
12:40	61.6	61.6	61.6	91	58.9	0	3	112	0.00	29.912 
12:45	61.8	61.8	61.8	91	59.1	1	3	90	0.00	29.909 
12:50	61.8	61.8	61.8	91	59.1	2	4	90	0.00	29.909 
12:55	61.8	61.8	61.8	91	59.1	1	5	90	0.00	29.909 
13:00	62.0	62.0	62.0	91	59.3	1	4	90	0.00	29.908 
13:05	62.1	62.1	62.1	91	59.4	2	5	90	0.00	29.908 
13:10	62.4	62.4	62.4	91	59.7	0	2	90	0.00	29.908 
13:15	62.6	62.6	62.6	91	59.9	1	3	90	0.00	29.908 
13:20	62.7	62.7	62.7	91	60.0	1	3	90	0.00	29.908 
13:25	63.1	63.1	63.1	91	60.4	0	2	90	0.00	29.908 
13:30	63.2	63.2	63.2	91	60.5	2	4	90	0.01	29.904 
13:35	63.5	63.5	63.5	91	60.8	1	5	112	0.00	29.904 
13:40	63.9	63.9	63.9	92	61.5	1	3	112	0.00	29.904 
13:45	64.0	64.0	64.0	91	61.3	1	4	112	0.00	29.893 
13:50	64.3	64.3	64.3	91	61.6	2	6	90	0.00	29.893 
13:55	64.3	64.3	64.3	91	61.6	2	4	90	0.00	29.893 
14:00	64.7	64.7	64.7	91	62.0	1	4	90	0.00	29.895 
14:05	64.7	64.7	64.7	90	61.7	2	4	90	0.00	29.895 
14:10	64.8	64.8	64.8	90	61.8	0	2	90	0.00	29.895 
14:15	64.8	64.8	64.8	89	61.5	1	3	90	0.00	29.894 
14:20	64.8	64.8	64.8	90	61.8	1	4	112	0.00	29.894 
14:25	65.0	65.0	65.0	90	62.0	0	1	112	0.00	29.894 
14:30	65.2	65.2	65.2	90	62.2	0	1	112	0.00	29.892 
14:35	65.2	65.2	65.2	90	62.2	1	4	135	0.00	29.892 
14:40	65.3	65.3	65.3	90	62.3	0	2	135	0.00	29.892 
14:45	65.5	65.5	65.5	90	62.5	1	2	135	0.00	29.893 
14:50	65.8	65.8	65.8	90	62.8	1	3	90	0.00	29.893 
14:55	66.0	66.0	66.0	90	63.0	0	2	90	0.00	29.893 
15:00	66.1	66.1	66.1	90	63.1	1	3	90	0.00	29.888 
15:05	66.3	66.3	66.3	90	63.3	2	6	90	0.00	29.888 
15:10	66.6	66.6	66.6	90	63.6	1	3	112	0.00	29.888 
15:15	66.8	66.8	66.8	90	63.8	2	3	90	0.00	29.877 
15:20	66.9	66.9	66.9	90	63.9	2	6	90	0.00	29.877 
15:25	67.1	67.1	67.1	88	63.4	2	4	90	0.00	29.877 
15:30	67.4	67.4	67.4	88	63.7	1	4	90	0.00	29.874 
15:35	67.8	67.8	67.8	88	64.1	1	3	90	0.00	29.874 
15:40	67.9	67.9	67.9	87	63.9	2	4	90	0.00	29.874 
15:45	68.3	68.3	68.3	86	63.9	0	1	90	0.00	29.871 
15:50	68.6	68.6	68.6	85	63.9	2	4	90	0.00	29.871 
15:55	68.9	68.9	68.9	84	63.9	1	2	90	0.00	29.871 
16:00	69.4	69.4	69.4	83	64.0	1	4	90	0.00	29.868 
16:05	69.8	69.8	69.8	83	64.4	1	4	90	0.00	29.868 
16:10	70.1	70.1	70.1	82	64.3	2	4	112	0.00	29.868 
16:15	70.3	70.3	70.3	80	63.8	1	4	135	0.00	29.862 
16:20	70.8	70.8	70.8	80	64.3	2	5	90	0.00	29.862 
16:25	71.1	71.1	71.1	78	63.9	2	5	112	0.00	29.862 
16:30	71.5	71.5	71.5	74	62.8	3	6	90	0.00	29.853 
16:35	71.6	71.6	71.6	74	62.9	2	6	90	0.00	29.853 
16:40	71.5	71.5	71.5	74	62.8	3	7	90	0.00	29.853 
16:45	71.5	71.5	71.5	74	62.8	3	7	90	0.00	29.854 
16:50	71.3	71.3	71.3	76	63.3	3	5	90	0.00	29.854 
16:55	71.3	71.3	71.3	77	63.7	2	4	90	0.00	29.854 
17:00	71.6	71.6	71.6	77	64.0	2	5	68	0.00	29.852 
17:05	72.3	72.3	72.3	76	64.3	2	5	90	0.00	29.852 
17:10	72.8	72.8	72.8	75	64.4	2	4	112	0.00	29.852 
17:15	72.5	72.5	72.5	74	63.7	3	7	90	0.00	29.852 
17:20	72.0	72.0	72.0	74	63.2	2	5	112	0.00	29.852 
17:25	71.8	71.8	71.8	76	63.8	2	5	112	0.00	29.852 
17:30	71.6	71.6	71.6	75	63.2	2	5	68	0.00	29.858 
17:35	71.6	71.6	71.6	77	64.0	2	4	90	0.00	29.858 
17:40	71.6	71.6	71.6	76	63.6	2	6	90	0.00	29.858 
17:45	71.6	71.6	71.6	76	63.6	2	4	112	0.00	29.855 
17:50	71.5	71.5	71.5	76	63.5	2	6	90	0.00	29.855 
17:55	71.6	71.6	71.6	76	63.6	1	5	112	0.00	29.855 
18:00	71.8	71.8	71.8	77	64.2	1	3	112	0.00	29.862 
18:05	71.6	71.6	71.6	75	63.2	3	5	90	0.00	29.862 
18:10	71.5	71.5	71.5	76	63.5	1	3	90	0.00	29.862 
18:15	71.5	71.5	71.5	76	63.5	1	5	90	0.00	29.864 
18:20	71.3	71.3	71.3	75	63.0	2	4	68	0.00	29.864 
18:25	71.3	71.3	71.3	77	63.7	1	3	90	0.00	29.864 
18:30	71.1	71.1	71.1	76	63.1	1	5	90	0.00	29.854 
18:35	71.1	71.1	71.1	77	63.5	2	6	112	0.00	29.854 
18:40	71.1	71.1	71.1	77	63.5	1	3	112	0.00	29.854 
18:45	71.1	71.1	71.1	76	63.1	1	4	90	0.00	29.853 
18:50	70.9	70.9	70.9	76	62.9	1	3	90	0.00	29.853 
18:55	70.9	70.9	70.9	76	62.9	1	3	90	0.00	29.853 
19:00	70.9	70.9	70.9	77	63.3	1	4	90	0.00	29.859 
19:05	70.9	70.9	70.9	77	63.3	1	2	90	0.00	29.859 
19:10	70.9	70.9	70.9	77	63.3	1	2	90	0.00	29.859 
19:15	70.8	70.8	70.8	77	63.2	1	2	90	0.00	29.864 
19:20	70.8	70.8	70.8	77	63.2	1	3	90	0.00	29.864 
19:25	70.8	70.8	70.8	77	63.2	1	4	90	0.00	29.864 
19:30	70.9	70.9	70.9	77	63.3	0	2	90	0.00	29.866 
19:35	70.9	70.9	70.9	77	63.3	1	3	90	0.00	29.866 
19:40	70.9	70.9	70.9	77	63.3	2	5	90	0.00	29.866 
19:45	70.9	70.9	70.9	77	63.3	1	5	90	0.00	29.863 
19:50	70.9	70.9	70.9	77	63.3	1	3	90	0.00	29.863 
19:55	70.9	70.9	70.9	77	63.3	1	3	112	0.00	29.863 
20:00	70.8	70.8	70.8	77	63.2	2	4	90	0.00	29.860 
20:05	70.8	70.8	70.8	77	63.2	1	4	90	0.00	29.860 
20:10	70.6	70.6	70.6	77	63.0	1	4	112	0.00	29.860 
20:15	70.6	70.6	70.6	77	63.0	2	4	90	0.00	29.860 
20:20	70.6	70.6	70.6	78	63.4	1	3	112	0.00	29.860 
20:25	70.4	70.4	70.4	78	63.2	1	3	112	0.00	29.860 
20:30	70.4	70.4	70.4	78	63.2	1	3	112	0.00	29.854 
20:35	70.3	70.3	70.3	78	63.1	1	3	90	0.00	29.854 
20:40	70.3	70.3	70.3	79	63.5	1	3	90	0.00	29.854 
20:45	70.1	70.1	70.1	79	63.3	1	2	90	0.00	29.851 
20:50	69.9	69.9	69.9	79	63.1	1	3	90	0.00	29.851 
20:55	69.9	69.9	69.9	80	63.4	1	4	90	0.00	29.851 
21:00	69.8	69.8	69.8	80	63.3	1	4	90	0.00	29.850 
21:05	69.6	69.6	69.6	80	63.1	1	2	90	0.00	29.850 
21:10	69.6	69.6	69.6	80	63.1	1	4	90	0.00	29.850 
21:15	69.6	69.6	69.6	80	63.1	1	4	90	0.00	29.842 
21:20	69.4	69.4	69.4	81	63.3	1	3	90	0.00	29.842 
21:25	69.4	69.4	69.4	81	63.3	1	2	90	0.00	29.842 
21:30	69.3	69.3	69.3	81	63.2	1	3	90	0.00	29.836 
21:35	69.1	69.1	69.1	81	63.0	1	4	90	0.00	29.836 
21:40	68.9	68.9	68.9	81	62.8	1	3	90	0.00	29.836 
21:45	68.9	68.9	68.9	81	62.8	1	2	90	0.00	29.837 
21:50	68.8	68.8	68.8	81	62.7	1	2	90	0.00	29.837 
21:55	68.8	68.8	68.8	81	62.7	0	2	90	0.00	29.837 
22:00	68.6	68.6	68.6	81	62.5	0	2	90	0.00	29.847 
22:05	68.6	68.6	68.6	82	62.9	0	1	90	0.00	29.847 
22:10	68.6	68.6	68.6	82	62.9	1	3	90	0.00	29.847 
22:15	68.4	68.4	68.4	82	62.7	0	1	90	0.00	29.851 
22:20	68.4	68.4	68.4	82	62.7	0	2	90	0.00	29.851 
22:25	68.3	68.3	68.3	82	62.6	0	1	90	0.00	29.851 
22:30	68.1	68.1	68.1	83	62.7	0	2	90	0.00	29.844 
22:35	67.8	67.8	67.8	83	62.4	0	2	90	0.00	29.844 
22:40	67.6	67.6	67.6	83	62.2	0	1	90	0.00	29.844 
22:45	67.4	67.4	67.4	84	62.4	0	1	90	0.00	29.844 
22:50	67.3	67.3	67.3	84	62.3	0	3	90	0.00	29.844 
22:55	67.1	67.1	67.1	85	62.4	0	2	90	0.00	29.844 
23:00	66.9	66.9	66.9	85	62.2	0	2	90	0.00	29.842 
23:05	66.9	66.9	66.9	85	62.2	1	3	90	0.00	29.842 
23:10	66.8	66.8	66.8	85	62.1	1	3	90	0.00	29.842 
23:15	66.6	66.6	66.6	85	61.9	1	3	90	0.00	29.841 
23:20	66.6	66.6	66.6	85	61.9	1	4	90	0.00	29.841 
23:25	66.4	66.4	66.4	85	61.7	1	3	90	0.00	29.841 
23:30	66.4	66.4	66.4	85	61.7	1	3	90	0.00	29.842 
23:35	66.3	66.3	66.3	85	61.6	1	2	90	0.00	29.842 
23:40	66.3	66.3	66.3	86	62.0	1	3	90	0.00	29.842 
23:45	66.1	66.1	66.1	86	61.8	0	3	90	0.00	29.850 
23:50	66.0	66.0	66.0	86	61.7	0	2	90	0.00	29.850 
23:55	65.8	65.8	65.8	86	61.5	0	1	90	0.00	29.850 

CoCoRaHS
IN-AL-39
A2 Web Hosting
Creative Commons License
GoDaddy
search engine by freefind advanced

loaded 2018-11-13 01:27:54 • last modified 2010-11-18 10:43:29
Privacy PolicyDisclaimer
• wx.awcolley.com is powered by PmWiki v.2002016 •
• all content (unless otherwise noted) © 2018 A W Colley